sensor_id;sensor_type;location;lat;lon;timestamp;P1;durP1;ratioP1;P2;durP2;ratioP2
17441;SDS011;8838;50.144;8.176;2023-03-15T00:00:10;11.20;;;2.23;;
17441;SDS011;8838;50.144;8.176;2023-03-15T00:02:38;17.30;;;2.67;;
17441;SDS011;8838;50.144;8.176;2023-03-15T00:05:06;13.80;;;2.17;;
17441;SDS011;8838;50.144;8.176;2023-03-15T00:07:33;16.80;;;2.20;;
17441;SDS011;8838;50.144;8.176;2023-03-15T00:10:01;18.83;;;2.70;;
17441;SDS011;8838;50.144;8.176;2023-03-15T00:12:28;11.90;;;1.93;;
17441;SDS011;8838;50.144;8.176;2023-03-15T00:14:56;7.80;;;1.83;;
17441;SDS011;8838;50.144;8.176;2023-03-15T00:17:23;15.57;;;2.57;;
17441;SDS011;8838;50.144;8.176;2023-03-15T00:19:49;11.00;;;2.10;;
17441;SDS011;8838;50.144;8.176;2023-03-15T00:22:16;12.60;;;2.10;;
17441;SDS011;8838;50.144;8.176;2023-03-15T00:24:43;15.00;;;3.00;;
17441;SDS011;8838;50.144;8.176;2023-03-15T00:27:11;11.50;;;2.53;;
17441;SDS011;8838;50.144;8.176;2023-03-15T00:29:38;11.03;;;2.33;;
17441;SDS011;8838;50.144;8.176;2023-03-15T00:32:05;11.93;;;2.40;;
17441;SDS011;8838;50.144;8.176;2023-03-15T00:34:31;14.67;;;2.20;;
17441;SDS011;8838;50.144;8.176;2023-03-15T00:36:58;13.80;;;2.33;;
17441;SDS011;8838;50.144;8.176;2023-03-15T00:39:25;18.83;;;2.43;;
17441;SDS011;8838;50.144;8.176;2023-03-15T00:41:52;9.77;;;1.93;;
17441;SDS011;8838;50.144;8.176;2023-03-15T00:44:22;8.00;;;2.10;;
17441;SDS011;8838;50.144;8.176;2023-03-15T00:46:49;10.10;;;2.30;;
17441;SDS011;8838;50.144;8.176;2023-03-15T00:49:16;11.80;;;2.40;;
17441;SDS011;8838;50.144;8.176;2023-03-15T00:51:43;13.40;;;2.50;;
17441;SDS011;8838;50.144;8.176;2023-03-15T00:54:10;10.30;;;2.03;;
17441;SDS011;8838;50.144;8.176;2023-03-15T00:56:38;11.37;;;2.40;;
17441;SDS011;8838;50.144;8.176;2023-03-15T00:59:05;10.53;;;2.10;;
17441;SDS011;8838;50.144;8.176;2023-03-15T01:01:34;10.30;;;2.17;;
17441;SDS011;8838;50.144;8.176;2023-03-15T01:04:02;9.63;;;2.00;;
17441;SDS011;8838;50.144;8.176;2023-03-15T01:06:29;11.33;;;2.13;;
17441;SDS011;8838;50.144;8.176;2023-03-15T01:08:56;12.17;;;2.23;;
17441;SDS011;8838;50.144;8.176;2023-03-15T01:11:24;16.83;;;2.70;;
17441;SDS011;8838;50.144;8.176;2023-03-15T01:13:53;10.50;;;2.50;;
17441;SDS011;8838;50.144;8.176;2023-03-15T01:16:23;11.77;;;2.50;;
17441;SDS011;8838;50.144;8.176;2023-03-15T01:18:52;10.43;;;2.47;;
17441;SDS011;8838;50.144;8.176;2023-03-15T01:21:21;11.13;;;2.93;;
17441;SDS011;8838;50.144;8.176;2023-03-15T01:23:49;10.27;;;2.20;;
17441;SDS011;8838;50.144;8.176;2023-03-15T01:26:16;11.07;;;2.40;;
17441;SDS011;8838;50.144;8.176;2023-03-15T01:28:43;9.13;;;2.67;;
17441;SDS011;8838;50.144;8.176;2023-03-15T01:31:12;16.50;;;2.27;;
17441;SDS011;8838;50.144;8.176;2023-03-15T01:33:42;9.10;;;2.30;;
17441;SDS011;8838;50.144;8.176;2023-03-15T01:36:10;9.20;;;1.90;;
17441;SDS011;8838;50.144;8.176;2023-03-15T01:38:38;9.87;;;2.30;;
17441;SDS011;8838;50.144;8.176;2023-03-15T01:41:04;14.93;;;2.67;;
17441;SDS011;8838;50.144;8.176;2023-03-15T01:43:32;15.57;;;3.10;;
17441;SDS011;8838;50.144;8.176;2023-03-15T01:46:05;11.03;;;2.13;;
17441;SDS011;8838;50.144;8.176;2023-03-15T01:48:53;9.57;;;2.40;;
17441;SDS011;8838;50.144;8.176;2023-03-15T01:51:25;13.00;;;2.33;;
17441;SDS011;8838;50.144;8.176;2023-03-15T01:53:58;11.60;;;2.10;;
17441;SDS011;8838;50.144;8.176;2023-03-15T01:56:28;14.87;;;2.40;;
17441;SDS011;8838;50.144;8.176;2023-03-15T01:58:56;10.23;;;2.10;;
17441;SDS011;8838;50.144;8.176;2023-03-15T02:01:25;11.23;;;2.30;;
17441;SDS011;8838;50.144;8.176;2023-03-15T02:03:54;13.53;;;1.90;;
17441;SDS011;8838;50.144;8.176;2023-03-15T02:06:29;10.40;;;2.40;;
17441;SDS011;8838;50.144;8.176;2023-03-15T02:09:00;16.13;;;2.20;;
17441;SDS011;8838;50.144;8.176;2023-03-15T02:11:29;6.17;;;2.00;;
17441;SDS011;8838;50.144;8.176;2023-03-15T02:13:56;9.53;;;2.10;;
17441;SDS011;8838;50.144;8.176;2023-03-15T02:16:24;11.67;;;1.90;;
17441;SDS011;8838;50.144;8.176;2023-03-15T02:18:53;9.47;;;2.23;;
17441;SDS011;8838;50.144;8.176;2023-03-15T02:21:24;10.93;;;1.90;;
17441;SDS011;8838;50.144;8.176;2023-03-15T02:24:13;8.03;;;2.00;;
17441;SDS011;8838;50.144;8.176;2023-03-15T02:26:50;12.50;;;2.20;;
17441;SDS011;8838;50.144;8.176;2023-03-15T02:29:22;9.13;;;2.20;;
17441;SDS011;8838;50.144;8.176;2023-03-15T02:31:51;6.87;;;1.63;;
17441;SDS011;8838;50.144;8.176;2023-03-15T02:34:18;17.87;;;2.50;;
17441;SDS011;8838;50.144;8.176;2023-03-15T02:36:49;8.43;;;2.07;;
17441;SDS011;8838;50.144;8.176;2023-03-15T02:39:18;10.40;;;1.80;;
17441;SDS011;8838;50.144;8.176;2023-03-15T02:41:47;6.10;;;1.93;;
17441;SDS011;8838;50.144;8.176;2023-03-15T02:44:17;11.53;;;2.20;;
17441;SDS011;8838;50.144;8.176;2023-03-15T02:46:50;7.27;;;1.90;;
17441;SDS011;8838;50.144;8.176;2023-03-15T02:49:20;7.53;;;2.30;;
17441;SDS011;8838;50.144;8.176;2023-03-15T02:51:50;15.73;;;3.73;;
17441;SDS011;8838;50.144;8.176;2023-03-15T02:54:17;13.93;;;3.60;;
17441;SDS011;8838;50.144;8.176;2023-03-15T02:56:43;13.87;;;3.13;;
17441;SDS011;8838;50.144;8.176;2023-03-15T02:59:10;12.13;;;3.10;;
17441;SDS011;8838;50.144;8.176;2023-03-15T03:01:37;17.60;;;3.33;;
17441;SDS011;8838;50.144;8.176;2023-03-15T03:04:06;7.23;;;3.23;;
17441;SDS011;8838;50.144;8.176;2023-03-15T03:06:33;12.27;;;3.60;;
17441;SDS011;8838;50.144;8.176;2023-03-15T03:08:59;12.97;;;3.20;;
17441;SDS011;8838;50.144;8.176;2023-03-15T03:11:27;11.60;;;3.50;;
17441;SDS011;8838;50.144;8.176;2023-03-15T03:13:55;11.27;;;4.07;;
17441;SDS011;8838;50.144;8.176;2023-03-15T03:16:22;12.37;;;3.47;;
17441;SDS011;8838;50.144;8.176;2023-03-15T03:18:49;15.10;;;4.30;;
17441;SDS011;8838;50.144;8.176;2023-03-15T03:21:17;13.70;;;3.80;;
17441;SDS011;8838;50.144;8.176;2023-03-15T03:23:44;10.90;;;3.33;;
17441;SDS011;8838;50.144;8.176;2023-03-15T03:26:11;15.17;;;3.70;;
17441;SDS011;8838;50.144;8.176;2023-03-15T03:28:41;12.07;;;4.43;;
17441;SDS011;8838;50.144;8.176;2023-03-15T03:31:14;12.47;;;3.93;;
17441;SDS011;8838;50.144;8.176;2023-03-15T03:33:42;11.83;;;3.83;;
17441;SDS011;8838;50.144;8.176;2023-03-15T03:36:09;12.07;;;4.10;;
17441;SDS011;8838;50.144;8.176;2023-03-15T03:38:38;11.63;;;7.87;;
17441;SDS011;8838;50.144;8.176;2023-03-15T03:41:05;8.67;;;4.23;;
17441;SDS011;8838;50.144;8.176;2023-03-15T03:43:32;12.47;;;4.03;;
17441;SDS011;8838;50.144;8.176;2023-03-15T03:45:59;16.10;;;7.43;;
17441;SDS011;8838;50.144;8.176;2023-03-15T03:48:28;15.77;;;5.30;;
17441;SDS011;8838;50.144;8.176;2023-03-15T03:50:55;13.33;;;5.07;;
17441;SDS011;8838;50.144;8.176;2023-03-15T03:53:22;16.30;;;8.27;;
17441;SDS011;8838;50.144;8.176;2023-03-15T03:55:50;21.77;;;8.57;;
17441;SDS011;8838;50.144;8.176;2023-03-15T03:58:18;11.47;;;4.53;;
17441;SDS011;8838;50.144;8.176;2023-03-15T04:00:45;15.93;;;4.40;;
17441;SDS011;8838;50.144;8.176;2023-03-15T04:03:12;18.10;;;7.07;;
17441;SDS011;8838;50.144;8.176;2023-03-15T04:05:42;15.03;;;4.93;;
17441;SDS011;8838;50.144;8.176;2023-03-15T04:08:09;15.13;;;4.93;;
17441;SDS011;8838;50.144;8.176;2023-03-15T04:10:39;16.73;;;5.30;;
17441;SDS011;8838;50.144;8.176;2023-03-15T04:13:07;15.10;;;5.57;;
17441;SDS011;8838;50.144;8.176;2023-03-15T04:15:34;15.67;;;5.03;;
17441;SDS011;8838;50.144;8.176;2023-03-15T04:18:01;18.53;;;5.63;;
17441;SDS011;8838;50.144;8.176;2023-03-15T04:20:29;12.77;;;5.10;;
17441;SDS011;8838;50.144;8.176;2023-03-15T04:22:58;14.80;;;5.20;;
17441;SDS011;8838;50.144;8.176;2023-03-15T04:25:25;13.50;;;5.60;;
17441;SDS011;8838;50.144;8.176;2023-03-15T04:27:52;18.77;;;6.53;;
17441;SDS011;8838;50.144;8.176;2023-03-15T04:30:24;17.27;;;7.10;;
17441;SDS011;8838;50.144;8.176;2023-03-15T04:32:52;20.13;;;6.47;;
17441;SDS011;8838;50.144;8.176;2023-03-15T04:35:23;17.63;;;5.60;;
17441;SDS011;8838;50.144;8.176;2023-03-15T04:37:51;17.30;;;5.40;;
17441;SDS011;8838;50.144;8.176;2023-03-15T04:40:18;17.67;;;5.77;;
17441;SDS011;8838;50.144;8.176;2023-03-15T04:42:47;21.67;;;9.40;;
17441;SDS011;8838;50.144;8.176;2023-03-15T04:45:14;19.17;;;7.37;;
17441;SDS011;8838;50.144;8.176;2023-03-15T04:47:43;25.20;;;6.70;;
17441;SDS011;8838;50.144;8.176;2023-03-15T04:50:10;14.60;;;6.07;;
17441;SDS011;8838;50.144;8.176;2023-03-15T04:52:37;16.63;;;6.10;;
17441;SDS011;8838;50.144;8.176;2023-03-15T04:55:04;15.50;;;6.07;;
17441;SDS011;8838;50.144;8.176;2023-03-15T04:57:31;13.87;;;5.73;;
17441;SDS011;8838;50.144;8.176;2023-03-15T05:00:00;19.87;;;7.00;;
17441;SDS011;8838;50.144;8.176;2023-03-15T05:02:30;18.43;;;8.03;;
17441;SDS011;8838;50.144;8.176;2023-03-15T05:04:58;16.83;;;5.37;;
17441;SDS011;8838;50.144;8.176;2023-03-15T05:07:25;19.37;;;5.53;;
17441;SDS011;8838;50.144;8.176;2023-03-15T05:09:52;18.13;;;7.10;;
17441;SDS011;8838;50.144;8.176;2023-03-15T05:12:19;14.37;;;6.07;;
17441;SDS011;8838;50.144;8.176;2023-03-15T05:14:45;21.57;;;5.77;;
17441;SDS011;8838;50.144;8.176;2023-03-15T05:17:12;16.37;;;5.90;;
17441;SDS011;8838;50.144;8.176;2023-03-15T05:19:39;14.13;;;6.23;;
17441;SDS011;8838;50.144;8.176;2023-03-15T05:22:08;14.90;;;5.20;;
17441;SDS011;8838;50.144;8.176;2023-03-15T05:24:35;14.17;;;5.47;;
17441;SDS011;8838;50.144;8.176;2023-03-15T05:27:02;12.67;;;4.97;;
17441;SDS011;8838;50.144;8.176;2023-03-15T05:29:29;20.53;;;5.27;;
17441;SDS011;8838;50.144;8.176;2023-03-15T05:31:58;12.90;;;4.20;;
17441;SDS011;8838;50.144;8.176;2023-03-15T05:34:28;14.97;;;5.80;;
17441;SDS011;8838;50.144;8.176;2023-03-15T05:36:56;15.67;;;4.70;;
17441;SDS011;8838;50.144;8.176;2023-03-15T05:39:24;15.43;;;5.80;;
17441;SDS011;8838;50.144;8.176;2023-03-15T05:41:51;18.37;;;6.30;;
17441;SDS011;8838;50.144;8.176;2023-03-15T05:44:18;14.33;;;5.07;;
17441;SDS011;8838;50.144;8.176;2023-03-15T05:46:45;12.00;;;4.23;;
17441;SDS011;8838;50.144;8.176;2023-03-15T05:49:12;11.97;;;4.60;;
17441;SDS011;8838;50.144;8.176;2023-03-15T05:51:38;16.53;;;4.60;;
17441;SDS011;8838;50.144;8.176;2023-03-15T05:54:05;10.63;;;3.83;;
17441;SDS011;8838;50.144;8.176;2023-03-15T05:56:34;13.70;;;4.40;;
17441;SDS011;8838;50.144;8.176;2023-03-15T05:59:00;18.03;;;4.90;;
17441;SDS011;8838;50.144;8.176;2023-03-15T06:01:28;19.40;;;5.27;;
17441;SDS011;8838;50.144;8.176;2023-03-15T06:03:55;14.97;;;4.43;;
17441;SDS011;8838;50.144;8.176;2023-03-15T06:06:25;15.83;;;4.10;;
17441;SDS011;8838;50.144;8.176;2023-03-15T06:08:52;12.07;;;4.00;;
17441;SDS011;8838;50.144;8.176;2023-03-15T06:11:19;17.87;;;4.60;;
17441;SDS011;8838;50.144;8.176;2023-03-15T06:13:47;16.33;;;4.10;;
17441;SDS011;8838;50.144;8.176;2023-03-15T06:16:14;16.80;;;3.90;;
17441;SDS011;8838;50.144;8.176;2023-03-15T06:18:41;14.83;;;4.33;;
17441;SDS011;8838;50.144;8.176;2023-03-15T06:21:07;15.43;;;4.20;;
17441;SDS011;8838;50.144;8.176;2023-03-15T06:23:34;13.53;;;4.30;;
17441;SDS011;8838;50.144;8.176;2023-03-15T06:26:01;9.03;;;3.50;;
17441;SDS011;8838;50.144;8.176;2023-03-15T06:28:28;9.47;;;3.40;;
17441;SDS011;8838;50.144;8.176;2023-03-15T06:30:58;10.83;;;3.47;;
17441;SDS011;8838;50.144;8.176;2023-03-15T06:33:31;10.00;;;3.73;;
17441;SDS011;8838;50.144;8.176;2023-03-15T06:35:58;14.07;;;3.60;;
17441;SDS011;8838;50.144;8.176;2023-03-15T06:38:25;9.83;;;3.53;;
17441;SDS011;8838;50.144;8.176;2023-03-15T06:40:52;15.40;;;3.80;;
17441;SDS011;8838;50.144;8.176;2023-03-15T06:43:22;10.43;;;3.40;;
17441;SDS011;8838;50.144;8.176;2023-03-15T06:45:49;8.87;;;3.20;;
17441;SDS011;8838;50.144;8.176;2023-03-15T06:48:19;9.77;;;3.53;;
17441;SDS011;8838;50.144;8.176;2023-03-15T06:50:46;9.50;;;3.50;;
17441;SDS011;8838;50.144;8.176;2023-03-15T06:53:13;11.47;;;3.50;;
17441;SDS011;8838;50.144;8.176;2023-03-15T06:55:39;11.47;;;3.40;;
17441;SDS011;8838;50.144;8.176;2023-03-15T06:58:06;9.83;;;3.20;;
17441;SDS011;8838;50.144;8.176;2023-03-15T07:00:33;9.43;;;3.37;;
17441;SDS011;8838;50.144;8.176;2023-03-15T07:03:00;10.33;;;3.60;;
17441;SDS011;8838;50.144;8.176;2023-03-15T07:05:29;8.07;;;3.70;;
17441;SDS011;8838;50.144;8.176;2023-03-15T07:07:56;9.20;;;2.97;;
17441;SDS011;8838;50.144;8.176;2023-03-15T07:10:23;9.07;;;3.53;;
17441;SDS011;8838;50.144;8.176;2023-03-15T07:12:50;6.60;;;3.23;;
17441;SDS011;8838;50.144;8.176;2023-03-15T07:15:17;7.47;;;3.00;;
17441;SDS011;8838;50.144;8.176;2023-03-15T07:17:44;11.57;;;3.20;;
17441;SDS011;8838;50.144;8.176;2023-03-15T07:20:11;10.37;;;3.30;;
17441;SDS011;8838;50.144;8.176;2023-03-15T07:22:39;10.63;;;2.70;;
17441;SDS011;8838;50.144;8.176;2023-03-15T07:25:09;7.50;;;2.93;;
17441;SDS011;8838;50.144;8.176;2023-03-15T07:27:36;11.00;;;2.60;;
17441;SDS011;8838;50.144;8.176;2023-03-15T07:30:03;7.83;;;2.57;;
17441;SDS011;8838;50.144;8.176;2023-03-15T07:32:32;7.00;;;2.40;;
17441;SDS011;8838;50.144;8.176;2023-03-15T07:34:59;11.13;;;3.33;;
17441;SDS011;8838;50.144;8.176;2023-03-15T07:37:26;6.77;;;3.27;;
17441;SDS011;8838;50.144;8.176;2023-03-15T07:39:54;11.33;;;2.77;;
17441;SDS011;8838;50.144;8.176;2023-03-15T07:42:22;11.93;;;3.07;;
17441;SDS011;8838;50.144;8.176;2023-03-15T07:44:49;10.73;;;3.10;;
17441;SDS011;8838;50.144;8.176;2023-03-15T07:47:16;7.50;;;2.80;;
17441;SDS011;8838;50.144;8.176;2023-03-15T07:49:43;7.37;;;2.80;;
17441;SDS011;8838;50.144;8.176;2023-03-15T07:52:10;7.20;;;2.67;;
17441;SDS011;8838;50.144;8.176;2023-03-15T07:54:37;8.80;;;2.70;;
17441;SDS011;8838;50.144;8.176;2023-03-15T07:57:07;5.80;;;2.80;;
17441;SDS011;8838;50.144;8.176;2023-03-15T07:59:37;4.77;;;2.73;;
17441;SDS011;8838;50.144;8.176;2023-03-15T08:02:04;11.87;;;3.30;;
17441;SDS011;8838;50.144;8.176;2023-03-15T08:04:34;9.57;;;2.63;;
17441;SDS011;8838;50.144;8.176;2023-03-15T08:07:01;9.80;;;2.83;;
17441;SDS011;8838;50.144;8.176;2023-03-15T08:09:28;6.67;;;2.83;;
17441;SDS011;8838;50.144;8.176;2023-03-15T08:11:57;6.87;;;3.00;;
17441;SDS011;8838;50.144;8.176;2023-03-15T08:14:25;12.03;;;3.50;;
17441;SDS011;8838;50.144;8.176;2023-03-15T08:16:53;6.77;;;2.80;;
17441;SDS011;8838;50.144;8.176;2023-03-15T08:19:19;5.90;;;2.50;;
17441;SDS011;8838;50.144;8.176;2023-03-15T08:21:47;4.27;;;2.60;;
17441;SDS011;8838;50.144;8.176;2023-03-15T08:24:14;5.73;;;2.60;;
17441;SDS011;8838;50.144;8.176;2023-03-15T08:26:40;6.10;;;2.50;;
17441;SDS011;8838;50.144;8.176;2023-03-15T08:29:08;4.87;;;2.47;;
17441;SDS011;8838;50.144;8.176;2023-03-15T08:31:36;7.57;;;2.70;;
17441;SDS011;8838;50.144;8.176;2023-03-15T08:34:03;3.90;;;2.60;;
17441;SDS011;8838;50.144;8.176;2023-03-15T08:36:30;6.87;;;2.60;;
17441;SDS011;8838;50.144;8.176;2023-03-15T08:38:57;4.23;;;2.40;;
17441;SDS011;8838;50.144;8.176;2023-03-15T08:41:24;6.60;;;2.57;;
17441;SDS011;8838;50.144;8.176;2023-03-15T08:43:51;10.10;;;2.90;;
17441;SDS011;8838;50.144;8.176;2023-03-15T08:46:18;5.10;;;2.70;;
17441;SDS011;8838;50.144;8.176;2023-03-15T08:48:49;5.30;;;2.40;;
17441;SDS011;8838;50.144;8.176;2023-03-15T08:51:17;5.13;;;2.40;;
17441;SDS011;8838;50.144;8.176;2023-03-15T08:53:45;3.87;;;2.30;;
17441;SDS011;8838;50.144;8.176;2023-03-15T08:56:12;4.80;;;2.27;;
17441;SDS011;8838;50.144;8.176;2023-03-15T08:58:38;4.37;;;1.90;;
17441;SDS011;8838;50.144;8.176;2023-03-15T09:01:05;3.37;;;2.37;;
17441;SDS011;8838;50.144;8.176;2023-03-15T09:03:37;4.13;;;2.17;;
17441;SDS011;8838;50.144;8.176;2023-03-15T09:06:08;4.97;;;2.00;;
17441;SDS011;8838;50.144;8.176;2023-03-15T09:08:36;2.57;;;1.90;;
17441;SDS011;8838;50.144;8.176;2023-03-15T09:11:05;3.83;;;2.13;;
17441;SDS011;8838;50.144;8.176;2023-03-15T09:13:32;2.93;;;2.10;;
17441;SDS011;8838;50.144;8.176;2023-03-15T09:15:59;3.40;;;2.13;;
17441;SDS011;8838;50.144;8.176;2023-03-15T09:18:27;4.53;;;2.30;;
17441;SDS011;8838;50.144;8.176;2023-03-15T09:20:55;2.43;;;2.00;;
17441;SDS011;8838;50.144;8.176;2023-03-15T09:23:23;4.18;;;2.60;;
17441;SDS011;8838;50.144;8.176;2023-03-15T09:25:50;2.87;;;1.90;;
17441;SDS011;8838;50.144;8.176;2023-03-15T09:28:17;2.47;;;1.87;;
17441;SDS011;8838;50.144;8.176;2023-03-15T09:30:44;3.10;;;2.10;;
17441;SDS011;8838;50.144;8.176;2023-03-15T09:33:11;2.80;;;2.00;;
17441;SDS011;8838;50.144;8.176;2023-03-15T09:35:38;3.33;;;1.95;;
17441;SDS011;8838;50.144;8.176;2023-03-15T09:38:05;2.17;;;1.90;;
17441;SDS011;8838;50.144;8.176;2023-03-15T09:40:39;3.75;;;2.30;;
17441;SDS011;8838;50.144;8.176;2023-03-15T09:43:14;2.83;;;2.10;;
17441;SDS011;8838;50.144;8.176;2023-03-15T09:46:00;2.90;;;1.90;;
17441;SDS011;8838;50.144;8.176;2023-03-15T09:48:36;3.67;;;1.70;;
17441;SDS011;8838;50.144;8.176;2023-03-15T09:51:11;4.10;;;2.23;;
17441;SDS011;8838;50.144;8.176;2023-03-15T09:53:42;2.97;;;2.30;;
17441;SDS011;8838;50.144;8.176;2023-03-15T09:56:21;2.10;;;1.90;;
17441;SDS011;8838;50.144;8.176;2023-03-15T09:58:50;2.77;;;1.90;;
17441;SDS011;8838;50.144;8.176;2023-03-15T10:01:21;3.30;;;2.10;;
17441;SDS011;8838;50.144;8.176;2023-03-15T10:03:54;2.47;;;1.93;;
17441;SDS011;8838;50.144;8.176;2023-03-15T10:06:22;2.37;;;2.10;;
17441;SDS011;8838;50.144;8.176;2023-03-15T10:08:53;3.37;;;2.40;;
17441;SDS011;8838;50.144;8.176;2023-03-15T10:11:25;5.40;;;2.70;;
17441;SDS011;8838;50.144;8.176;2023-03-15T10:14:00;3.70;;;2.60;;
17441;SDS011;8838;50.144;8.176;2023-03-15T10:16:38;5.27;;;3.00;;
17441;SDS011;8838;50.144;8.176;2023-03-15T10:19:12;3.73;;;3.13;;
17441;SDS011;8838;50.144;8.176;2023-03-15T10:21:45;3.13;;;2.83;;
17441;SDS011;8838;50.144;8.176;2023-03-15T10:24:18;4.87;;;3.40;;
17441;SDS011;8838;50.144;8.176;2023-03-15T10:26:47;5.37;;;3.93;;
17441;SDS011;8838;50.144;8.176;2023-03-15T10:29:18;3.93;;;3.00;;
17441;SDS011;8838;50.144;8.176;2023-03-15T10:31:48;5.23;;;3.20;;
17441;SDS011;8838;50.144;8.176;2023-03-15T10:34:16;5.10;;;3.60;;
17441;SDS011;8838;50.144;8.176;2023-03-15T10:36:47;5.67;;;3.87;;
17441;SDS011;8838;50.144;8.176;2023-03-15T10:39:18;5.37;;;3.73;;
17441;SDS011;8838;50.144;8.176;2023-03-15T10:41:52;4.40;;;3.30;;
17441;SDS011;8838;50.144;8.176;2023-03-15T10:44:20;5.00;;;3.30;;
17441;SDS011;8838;50.144;8.176;2023-03-15T10:46:57;3.33;;;3.03;;
17441;SDS011;8838;50.144;8.176;2023-03-15T10:49:31;4.33;;;3.47;;
17441;SDS011;8838;50.144;8.176;2023-03-15T10:51:59;8.13;;;3.10;;
17441;SDS011;8838;50.144;8.176;2023-03-15T10:54:27;5.10;;;3.87;;
17441;SDS011;8838;50.144;8.176;2023-03-15T10:56:56;3.97;;;3.10;;
17441;SDS011;8838;50.144;8.176;2023-03-15T10:59:27;3.63;;;2.80;;
17441;SDS011;8838;50.144;8.176;2023-03-15T11:02:06;4.27;;;2.70;;
17441;SDS011;8838;50.144;8.176;2023-03-15T11:04:47;3.27;;;2.67;;
17441;SDS011;8838;50.144;8.176;2023-03-15T11:07:15;2.70;;;2.17;;
17441;SDS011;8838;50.144;8.176;2023-03-15T11:09:43;2.63;;;1.60;;
17441;SDS011;8838;50.144;8.176;2023-03-15T11:12:15;4.27;;;1.87;;
17441;SDS011;8838;50.144;8.176;2023-03-15T11:14:48;2.87;;;1.80;;
17441;SDS011;8838;50.144;8.176;2023-03-15T11:17:18;2.43;;;2.00;;
17441;SDS011;8838;50.144;8.176;2023-03-15T11:19:50;1.77;;;1.67;;
17441;SDS011;8838;50.144;8.176;2023-03-15T11:22:20;4.30;;;2.53;;
17441;SDS011;8838;50.144;8.176;2023-03-15T11:24:47;3.53;;;2.00;;
17441;SDS011;8838;50.144;8.176;2023-03-15T11:27:20;2.97;;;2.23;;
17441;SDS011;8838;50.144;8.176;2023-03-15T11:29:49;4.43;;;2.57;;
17441;SDS011;8838;50.144;8.176;2023-03-15T11:32:20;3.30;;;2.37;;
17441;SDS011;8838;50.144;8.176;2023-03-15T11:34:53;5.83;;;3.27;;
17441;SDS011;8838;50.144;8.176;2023-03-15T11:37:25;2.57;;;2.30;;
17441;SDS011;8838;50.144;8.176;2023-03-15T11:39:59;3.50;;;2.53;;
17441;SDS011;8838;50.144;8.176;2023-03-15T11:42:32;2.70;;;2.40;;
17441;SDS011;8838;50.144;8.176;2023-03-15T11:45:03;4.00;;;2.90;;
17441;SDS011;8838;50.144;8.176;2023-03-15T11:47:39;3.47;;;2.50;;
17441;SDS011;8838;50.144;8.176;2023-03-15T11:50:13;5.03;;;2.97;;
17441;SDS011;8838;50.144;8.176;2023-03-15T11:52:40;5.20;;;2.30;;
17441;SDS011;8838;50.144;8.176;2023-03-15T11:55:14;4.43;;;2.20;;
17441;SDS011;8838;50.144;8.176;2023-03-15T11:57:45;6.67;;;2.33;;
17441;SDS011;8838;50.144;8.176;2023-03-15T12:00:18;4.70;;;2.40;;
17441;SDS011;8838;50.144;8.176;2023-03-15T12:02:52;5.83;;;2.20;;
17441;SDS011;8838;50.144;8.176;2023-03-15T12:05:43;2.57;;;2.00;;
17441;SDS011;8838;50.144;8.176;2023-03-15T12:08:20;6.47;;;2.50;;
17441;SDS011;8838;50.144;8.176;2023-03-15T12:10:50;3.30;;;2.30;;
17441;SDS011;8838;50.144;8.176;2023-03-15T12:13:21;3.93;;;2.93;;
17441;SDS011;8838;50.144;8.176;2023-03-15T12:15:49;7.03;;;2.80;;
17441;SDS011;8838;50.144;8.176;2023-03-15T12:21:09;3.87;;;2.40;;
17441;SDS011;8838;50.144;8.176;2023-03-15T12:23:43;3.03;;;2.07;;
17441;SDS011;8838;50.144;8.176;2023-03-15T12:29:14;4.00;;;2.40;;
17441;SDS011;8838;50.144;8.176;2023-03-15T12:31:48;5.80;;;2.67;;
17441;SDS011;8838;50.144;8.176;2023-03-15T12:34:22;5.40;;;2.57;;
17441;SDS011;8838;50.144;8.176;2023-03-15T12:36:52;4.90;;;2.63;;
17441;SDS011;8838;50.144;8.176;2023-03-15T12:39:34;4.50;;;2.13;;
17441;SDS011;8838;50.144;8.176;2023-03-15T12:42:04;3.10;;;2.13;;
17441;SDS011;8838;50.144;8.176;2023-03-15T12:44:39;6.67;;;2.40;;
17441;SDS011;8838;50.144;8.176;2023-03-15T12:47:07;4.90;;;2.50;;
17441;SDS011;8838;50.144;8.176;2023-03-15T12:49:36;3.67;;;2.20;;
17441;SDS011;8838;50.144;8.176;2023-03-15T12:55:02;2.97;;;2.57;;
17441;SDS011;8838;50.144;8.176;2023-03-15T12:57:38;4.10;;;2.30;;
17441;SDS011;8838;50.144;8.176;2023-03-15T13:00:14;2.73;;;2.40;;
17441;SDS011;8838;50.144;8.176;2023-03-15T13:02:45;4.13;;;2.50;;
17441;SDS011;8838;50.144;8.176;2023-03-15T13:05:18;2.07;;;1.87;;
17441;SDS011;8838;50.144;8.176;2023-03-15T13:07:52;4.17;;;2.10;;
17441;SDS011;8838;50.144;8.176;2023-03-15T13:10:24;2.70;;;2.10;;
17441;SDS011;8838;50.144;8.176;2023-03-15T13:13:07;2.53;;;2.20;;
17441;SDS011;8838;50.144;8.176;2023-03-15T13:15:48;4.63;;;2.10;;
17441;SDS011;8838;50.144;8.176;2023-03-15T13:18:26;2.13;;;1.93;;
17441;SDS011;8838;50.144;8.176;2023-03-15T13:21:01;3.43;;;2.40;;
17441;SDS011;8838;50.144;8.176;2023-03-15T13:23:35;3.53;;;2.40;;
17441;SDS011;8838;50.144;8.176;2023-03-15T13:26:10;3.90;;;2.60;;
17441;SDS011;8838;50.144;8.176;2023-03-15T13:28:55;3.50;;;2.50;;
17441;SDS011;8838;50.144;8.176;2023-03-15T13:31:27;5.43;;;2.63;;
17441;SDS011;8838;50.144;8.176;2023-03-15T13:33:56;6.33;;;3.10;;
17441;SDS011;8838;50.144;8.176;2023-03-15T13:36:38;4.67;;;2.60;;
17441;SDS011;8838;50.144;8.176;2023-03-15T13:39:08;4.47;;;2.70;;
17441;SDS011;8838;50.144;8.176;2023-03-15T13:41:39;3.53;;;2.47;;
17441;SDS011;8838;50.144;8.176;2023-03-15T13:44:11;5.23;;;2.80;;
17441;SDS011;8838;50.144;8.176;2023-03-15T13:46:43;4.80;;;2.50;;
17441;SDS011;8838;50.144;8.176;2023-03-15T13:49:11;6.13;;;3.00;;
17441;SDS011;8838;50.144;8.176;2023-03-15T13:51:38;5.27;;;3.40;;
17441;SDS011;8838;50.144;8.176;2023-03-15T13:54:07;3.80;;;2.80;;
17441;SDS011;8838;50.144;8.176;2023-03-15T13:56:44;5.27;;;2.80;;
17441;SDS011;8838;50.144;8.176;2023-03-15T13:59:21;5.03;;;3.30;;
17441;SDS011;8838;50.144;8.176;2023-03-15T14:01:52;5.23;;;2.87;;
17441;SDS011;8838;50.144;8.176;2023-03-15T14:04:21;6.00;;;3.03;;
17441;SDS011;8838;50.144;8.176;2023-03-15T14:06:50;5.50;;;3.30;;
17441;SDS011;8838;50.144;8.176;2023-03-15T14:09:28;4.63;;;2.93;;
17441;SDS011;8838;50.144;8.176;2023-03-15T14:12:01;4.07;;;2.80;;
17441;SDS011;8838;50.144;8.176;2023-03-15T14:14:30;5.27;;;2.70;;
17441;SDS011;8838;50.144;8.176;2023-03-15T14:16:59;5.10;;;2.70;;
17441;SDS011;8838;50.144;8.176;2023-03-15T14:19:34;3.93;;;2.37;;
17441;SDS011;8838;50.144;8.176;2023-03-15T14:22:02;5.30;;;2.70;;
17441;SDS011;8838;50.144;8.176;2023-03-15T14:24:38;5.10;;;2.43;;
17441;SDS011;8838;50.144;8.176;2023-03-15T14:27:06;5.07;;;3.00;;
17441;SDS011;8838;50.144;8.176;2023-03-15T14:29:36;5.20;;;2.63;;
17441;SDS011;8838;50.144;8.176;2023-03-15T14:32:07;5.37;;;2.90;;
17441;SDS011;8838;50.144;8.176;2023-03-15T14:34:47;4.73;;;2.40;;
17441;SDS011;8838;50.144;8.176;2023-03-15T14:37:26;4.57;;;2.37;;
17441;SDS011;8838;50.144;8.176;2023-03-15T14:40:03;5.20;;;2.57;;
17441;SDS011;8838;50.144;8.176;2023-03-15T14:42:37;8.00;;;2.33;;
17441;SDS011;8838;50.144;8.176;2023-03-15T14:45:05;6.17;;;2.57;;
17441;SDS011;8838;50.144;8.176;2023-03-15T14:47:34;4.43;;;2.60;;
17441;SDS011;8838;50.144;8.176;2023-03-15T14:50:04;4.87;;;2.57;;
17441;SDS011;8838;50.144;8.176;2023-03-15T14:52:36;8.47;;;2.57;;
17441;SDS011;8838;50.144;8.176;2023-03-15T14:55:03;4.67;;;2.60;;
17441;SDS011;8838;50.144;8.176;2023-03-15T14:57:30;4.70;;;2.60;;
17441;SDS011;8838;50.144;8.176;2023-03-15T14:59:57;5.47;;;2.73;;
17441;SDS011;8838;50.144;8.176;2023-03-15T15:02:24;4.37;;;2.30;;
17441;SDS011;8838;50.144;8.176;2023-03-15T15:04:53;5.90;;;3.10;;
17441;SDS011;8838;50.144;8.176;2023-03-15T15:07:20;4.60;;;2.33;;
17441;SDS011;8838;50.144;8.176;2023-03-15T15:09:48;6.87;;;2.23;;
17441;SDS011;8838;50.144;8.176;2023-03-15T15:12:15;3.47;;;1.97;;
17441;SDS011;8838;50.144;8.176;2023-03-15T15:14:43;4.83;;;2.20;;
17441;SDS011;8838;50.144;8.176;2023-03-15T15:17:10;5.97;;;2.37;;